Flight Track Log - Related Links

Times and Time Zones

All times are in EDT time to prevent confusion due to time zone crossing. See the ASQ5738 flight status page for this flight to view local times or setup timezone preferences in your user account.

Time Position Orientation Groundspeed Altitude Reporting Facility
EDT Latitude Longitude Course Direction KTS MPH feet Rate Location/Type
Sun 10:12:22 AM 42.7278 -73.8081 194° South 173 199 1,100  Level Boston Center
Sun 10:13:22 AM 42.7000 -73.8528 230° Southwest 217 250 3,200 2,118 Climbing Boston Center
Sun 10:14:38 AM 42.7428 -73.9414 303° West 257 296 5,900 2,382 Climbing Boston Center
Sun 10:15:00 AM 42.4468 -74.1132 196° South  Level Estimated
Sun 10:15:38 AM 42.7831 -74.0328 301° West 270 311 8,600  Level Boston Center
Sun 10:16:00 AM 42.3711 -74.1906 198° South  Level Estimated
Sun 10:16:38 AM 42.7878 -74.1433 273° West 276 318 10,700  Level Boston Center
Sun 10:17:00 AM 42.2953 -74.2677 194° South  Level Estimated
Sun 10:17:38 AM 42.7442 -74.2636 244° Southwest 326 375 11,900  Level Boston Center
Sun 10:18:38 AM 42.6597 -74.3261 209° Southwest 340 391 13,400 1,550 Climbing Boston Center
Sun 10:19:38 AM 42.5650 -74.2583 152° Southeast 334 384 15,000 1,500 Climbing Boston Center
Sun 10:20:38 AM 42.4703 -74.1964 154° Southeast 360 414 16,400 1,450 Climbing Boston Center
Sun 10:21:38 AM 42.3753 -74.1292 152° Southeast 384 442 17,900 1,400 Climbing Boston Center
Sun 10:22:38 AM 42.2906 -74.0764 155° Southeast 384 442 19,200 1,350 Climbing Boston Center
Sun 10:23:38 AM 42.1847 -74.0539 171° South 379 436 20,600 1,350 Climbing Boston Center
Sun 10:24:38 AM 42.0797 -74.1044 200° South 368 423 21,900 1,200 Climbing Boston Center
Sun 10:25:38 AM 41.9692 -74.1128 183° South 393 452 23,000 1,050 Climbing Boston Center
Sun 10:26:38 AM 41.8592 -74.0847 169° South 393 452 24,000 750 Climbing Boston Center
Sun 10:27:38 AM 41.7469 -74.0511 167° South 406 467 24,500 548 Climbing Boston Center
Sun 10:29:55 AM 41.4797 -74.0772 184° South 408 470 25,800 523 Climbing New York Center
Sun 10:30:53 AM 41.3728 -74.1772 215° Southwest 433 498 26,200 458 Climbing New York Center
Sun 10:31:53 AM 41.2703 -74.2603 211° Southwest 465 535 26,700 496 Climbing New York Center
Sun 10:32:54 AM 41.1633 -74.3594 215° Southwest 477 549 27,200 496 Climbing New York Center
Sun 10:33:54 AM 41.0561 -74.4556 214° Southwest 483 556 27,700 397 Climbing New York Center
Sun 10:34:55 AM 40.9447 -74.5539 214° Southwest 483 556 28,000 149 Climbing New York Center
Sun 10:35:55 AM 40.8736 -74.6925 236° Southwest 462 532 28,000  Level New York Center
Sun 10:36:55 AM 40.8164 -74.8428 243° Southwest 462 532 28,000  Level New York Center
Sun 10:37:53 AM 40.7511 -74.9842 239° Southwest 457 526 28,000  Level New York Center
Sun 10:38:54 AM 40.6878 -75.1197 238° Southwest 446 513 28,000  Level New York Center
Sun 10:39:55 AM 40.6222 -75.2550 237° Southwest 446 513 28,000 -149 Level New York Center
Sun 10:40:55 AM 40.5586 -75.3903 238° Southwest 446 513 27,700 -1,289 Descending New York Center
Sun 10:41:56 AM 40.4950 -75.5253 238° Southwest 438 504 25,400 -2,300 Descending New York Center
Sun 10:42:55 AM 40.4311 -75.6597 238° Southwest 438 504 23,100 -2,300 Descending New York Center
Sun 10:43:56 AM 40.3694 -75.7889 238° Southwest 438 504 20,800 -1,576 Descending New York Center
Sun 10:44:53 AM 40.2989 -75.9253 236° Southwest 432 497 20,000 -407 Descending New York Center
Sun 10:45:54 AM 40.2414 -76.0461 238° Southwest 417 480 20,000 -393 Level New York Center
Sun 10:46:55 AM 40.1842 -76.1642 238° Southwest 406 467 19,200 -815 Descending New York Center
Sun 10:48:36 AM 40.0833 -76.3667 237° Southwest 364 419 17,800 -894 Descending Potomac TRACON
Sun 10:49:36 AM 40.0333 -76.4667 237° Southwest 357 411 16,800 -1,050 Descending Potomac TRACON
Sun 10:50:36 AM 39.9833 -76.5833 241° Southwest 351 404 15,700 -893 Descending Potomac TRACON
Sun 10:51:37 AM 39.9333 -76.6833 237° Southwest 344 396 15,000 -365 Descending Potomac TRACON
Sun 10:52:31 AM 39.9000 -76.7833 247° West 344 396 15,000  Level Potomac TRACON
Sun 10:53:31 AM 39.8500 -76.8833 237° Southwest 347 399 15,000 -500 Level Potomac TRACON
Sun 10:54:31 AM 39.8000 -77.0000 241° Southwest 341 392 14,000 -1,368 Descending Potomac TRACON
Sun 10:55:25 AM 39.7500 -77.0833 232° Southwest 331 381 12,400 -1,789 Descending Potomac TRACON
Sun 10:56:25 AM 39.7000 -77.1833 237° Southwest 323 372 10,600 -1,200 Descending Potomac TRACON
Sun 10:57:25 AM 39.6667 -77.2833 247° West 323 372 10,000 -474 Descending Potomac TRACON
Sun 10:58:19 AM 39.6000 -77.3333 210° Southwest 293 337 9,700 -684 Descending Potomac TRACON
Sun 10:59:19 AM 39.5333 -77.3500 191° South 279 321 8,700 -992 Descending Potomac TRACON
Sun 11:00:20 AM 39.4500 -77.3667 189° South 273 314 7,700 -991 Descending Potomac TRACON
Sun 11:01:14 AM 39.3833 -77.3667 180° South 271 312 6,800 -1,000 Descending Potomac TRACON
Sun 11:02:14 AM 39.3167 -77.3667 180° South 250 288 5,800 -1,100 Descending Potomac TRACON
Sun 11:03:14 AM 39.2500 -77.3667 180° South 228 262 4,600 -900 Descending Potomac TRACON
Sun 11:04:14 AM 39.1833 -77.3667 180° South 224 258 4,000 -300 Descending Potomac TRACON
Sun 11:05:14 AM 39.1167 -77.3500 169° South 224 258 4,000  Level Potomac TRACON
Sun 11:06:08 AM 39.0667 -77.3500 180° South 225 259 4,000  Level Potomac TRACON
Sun 11:07:08 AM 39.0000 -77.3500 180° South 226 260 4,000  Level Potomac TRACON
Sun 11:08:03 AM 38.9500 -77.3500 180° South 228 262 4,000  Level Potomac TRACON
Sun 11:09:03 AM 38.8833 -77.3500 180° South 224 258 4,000  Level Potomac TRACON
Sun 11:10:03 AM 38.8333 -77.3667 195° South 218 251 4,000 -350 Level Potomac TRACON
Sun 11:11:03 AM 38.7667 -77.3667 180° South 221 254 3,300 -496 Descending Potomac TRACON
Sun 11:12:04 AM 38.7167 -77.3667 180° South 208 239 3,000 -545 Descending Potomac TRACON
Sun 11:13:04 AM 38.7167 -77.4333 270° West 188 216 2,200 -800 Descending Potomac TRACON

Login

Don't have an account? Register now (free) for customized features, flight alerts, and more!